Time;durP1;ratioP1;P1;durP2;ratioP2;P2;SDS_P1;SDS_P2;PMS_P1;PMS_P2;Temp;Humidity;BMP_temperature;BMP_pressure;BME280_temperature;BME280_humidity;BME280_pressure;Samples;Min_cycle;Max_cycle;Signal;HPM_P1;HPM_P2
2023/08/17 00:02:25;;;;;;;7.70;6.63;;;;;;;23.14;61.42;94948.34;5055490;28;20259;-67
2023/08/17 00:04:53;;;;;;;6.32;5.72;;;;;;;23.14;61.70;94953.19;5055555;28;20193;-67
2023/08/17 00:07:23;;;;;;;6.88;6.18;;;;;;;23.14;61.61;94956.78;5054707;28;20271;-67
2023/08/17 00:09:51;;;;;;;8.90;5.88;;;;;;;23.12;61.52;94955.63;5054843;28;20204;-67
2023/08/17 00:12:19;;;;;;;6.60;5.90;;;;;;;23.07;61.89;94956.94;5055023;28;20197;-67
2023/08/17 00:14:47;;;;;;;6.68;6.03;;;;;;;23.03;62.07;94961.84;5054685;28;20637;-67
2023/08/17 00:17:19;;;;;;;6.05;5.53;;;;;;;23.01;62.05;94956.66;5054222;28;20202;-67
2023/08/17 00:19:46;;;;;;;6.88;6.18;;;;;;;22.95;62.19;94964.03;5053912;28;20651;-67
2023/08/17 00:22:14;;;;;;;6.78;5.90;;;;;;;22.90;62.52;94963.72;5054845;28;20201;-67
2023/08/17 00:24:44;;;;;;;6.82;6.22;;;;;;;22.86;62.61;94961.00;5054742;28;20189;-67
2023/08/17 00:27:11;;;;;;;7.32;5.68;;;;;;;22.79;62.54;94959.13;5070782;28;20208;-67
2023/08/17 00:29:38;;;;;;;6.30;5.60;;;;;;;22.75;62.63;94957.63;5054503;28;20190;-67
2023/08/17 00:32:07;;;;;;;6.03;5.50;;;;;;;22.72;62.72;94958.50;5053737;28;20223;-67
2023/08/17 00:34:39;;;;;;;6.40;5.90;;;;;;;22.70;62.68;94961.75;5054863;28;20194;-67
2023/08/17 00:37:10;;;;;;;6.45;5.82;;;;;;;22.65;62.57;94961.44;5056375;28;20201;-67
2023/08/17 00:39:36;;;;;;;6.85;5.50;;;;;;;22.59;62.76;94952.75;5057289;28;20197;-67
2023/08/17 00:42:05;;;;;;;6.05;5.50;;;;;;;22.57;62.78;94952.38;5057419;28;20193;-67
2023/08/17 00:44:33;;;;;;;6.00;5.43;;;;;;;22.54;62.62;94956.06;5057506;28;20204;-67
2023/08/17 00:47:01;;;;;;;5.47;5.00;;;;;;;22.50;62.18;94944.88;5057477;28;20212;-67
2023/08/17 00:49:29;;;;;;;7.07;5.72;;;;;;;22.47;62.39;94954.19;5057554;28;20201;-67
2023/08/17 00:51:59;;;;;;;5.60;4.95;;;;;;;22.43;62.29;94947.06;5073986;28;20211;-67
2023/08/17 00:54:28;;;;;;;6.35;5.03;;;;;;;22.40;62.15;94954.31;5075347;28;20208;-67
2023/08/17 00:56:56;;;;;;;5.05;4.55;;;;;;;22.35;62.10;94949.22;5057446;28;20205;-67
2023/08/17 00:59:24;;;;;;;5.07;4.68;;;;;;;22.34;61.91;94953.25;5057495;28;20193;-67
2023/08/17 01:01:53;;;;;;;6.70;5.18;;;;;;;22.31;61.94;94949.28;5056839;28;20205;-67
2023/08/17 01:04:23;;;;;;;4.97;4.40;;;;;;;22.29;61.79;94948.13;5074304;28;20189;-67
2023/08/17 01:06:51;;;;;;;4.85;4.20;;;;;;;22.27;61.80;94948.56;5057827;28;20204;-68
2023/08/17 01:09:21;;;;;;;9.25;4.63;;;;;;;22.27;61.90;94951.38;5057379;28;20201;-67
2023/08/17 01:11:52;;;;;;;4.82;4.38;;;;;;;22.26;61.35;94951.81;5073577;28;20202;-67
2023/08/17 01:14:24;;;;;;;4.90;4.50;;;;;;;22.26;61.38;94949.00;5057666;28;20200;-67
2023/08/17 01:16:57;;;;;;;4.78;4.38;;;;;;;22.22;61.04;94951.91;5057253;28;20197;-67
2023/08/17 01:19:27;;;;;;;4.60;4.20;;;;;;;22.22;60.72;94937.03;5057248;28;20197;-67
2023/08/17 01:21:58;;;;;;;5.50;4.53;;;;;;;22.22;60.81;94937.84;5056754;28;20672;-67
2023/08/17 01:24:28;;;;;;;4.97;4.22;;;;;;;22.23;60.64;94933.03;5057238;28;20197;-67
2023/08/17 01:26:54;;;;;;;4.55;4.18;;;;;;;22.22;60.46;94928.59;5057047;28;20323;-67
2023/08/17 01:29:25;;;;;;;4.72;4.30;;;;;;;22.20;60.43;94934.69;5057162;28;20204;-67
2023/08/17 01:31:55;;;;;;;5.70;4.22;;;;;;;22.20;60.45;94931.88;5056700;28;20614;-67
2023/08/17 01:34:27;;;;;;;4.45;4.05;;;;;;;22.20;60.11;94939.50;5056859;28;20193;-67
2023/08/17 01:36:59;;;;;;;4.97;4.07;;;;;;;22.20;60.37;94933.88;5056908;28;20291;-67
2023/08/17 01:39:36;;;;;;;5.13;4.25;;;;;;;22.20;59.81;94929.06;5056787;28;20204;-67
2023/08/17 01:42:05;;;;;;;4.68;4.13;;;;;;;22.17;59.87;94932.72;5057002;28;20224;-67
2023/08/17 01:44:32;;;;;;;4.60;4.20;;;;;;;22.18;59.99;94934.31;5059579;28;20201;-67
2023/08/17 01:47:00;;;;;;;4.47;4.05;;;;;;;22.21;59.89;94929.84;5060946;28;20189;-68
2023/08/17 01:49:31;;;;;;;5.25;3.92;;;;;;;22.23;59.97;94931.00;5076954;28;20201;-67
2023/08/17 01:51:58;;;;;;;4.82;4.43;;;;;;;22.28;59.96;94936.09;5076883;28;20201;-67
2023/08/17 01:54:26;;;;;;;6.38;4.20;;;;;;;22.29;59.93;94934.88;5059980;28;20193;-67
2023/08/17 01:56:55;;;;;;;4.85;4.45;;;;;;;22.30;59.78;94941.31;5060007;28;20197;-67
2023/08/17 01:59:23;;;;;;;4.50;3.67;;;;;;;22.30;59.68;94933.66;5060398;28;20215;-67
2023/08/17 02:01:50;;;;;;;5.25;4.22;;;;;;;22.26;59.66;94932.97;5060166;28;20221;-67
2023/08/17 02:04:19;;;;;;;4.40;4.00;;;;;;;22.23;59.68;94935.84;5060059;28;20197;-67
2023/08/17 02:06:49;;;;;;;4.72;4.20;;;;;;;22.21;59.68;94938.28;5059821;28;20204;-67
2023/08/17 02:09:18;;;;;;;6.05;4.15;;;;;;;22.17;59.87;94931.94;5059827;28;20193;-67
2023/08/17 02:11:47;;;;;;;6.28;4.10;;;;;;;22.19;60.21;94940.72;5059922;28;20204;-67
2023/08/17 02:14:16;;;;;;;4.45;4.05;;;;;;;22.19;59.86;94938.72;5060640;28;20219;-67
2023/08/17 02:16:44;;;;;;;4.45;4.15;;;;;;;22.19;59.86;94930.28;5059614;28;20201;-67
2023/08/17 02:19:12;;;;;;;4.45;4.05;;;;;;;22.17;59.67;94935.53;5076294;28;20255;-67
2023/08/17 02:21:40;;;;;;;4.13;3.75;;;;;;;22.17;59.73;94934.75;5059382;28;20213;-67
2023/08/17 02:24:10;;;;;;;4.43;4.03;;;;;;;22.14;59.46;94927.97;5059753;28;20652;-67
2023/08/17 02:26:39;;;;;;;4.40;4.00;;;;;;;22.11;59.59;94929.59;5060199;28;20193;-67
2023/08/17 02:29:10;;;;;;;4.85;4.20;;;;;;;22.10;59.32;94932.84;5059615;28;20197;-67
2023/08/17 02:31:38;;;;;;;4.90;4.40;;;;;;;22.03;59.63;94930.16;5076075;28;20200;-67
2023/08/17 02:34:06;;;;;;;4.82;3.88;;;;;;;21.99;59.82;94930.22;5059318;28;20185;-67
2023/08/17 02:36:34;;;;;;;4.38;3.97;;;;;;;22.02;59.98;94925.78;5076318;28;20213;-67
2023/08/17 02:39:03;;;;;;;5.25;4.50;;;;;;;22.02;59.90;94929.38;5055871;28;20244;-67
2023/08/17 02:41:33;;;;;;;4.72;4.32;;;;;;;21.99;59.80;94927.41;5056019;28;20210;-67
2023/08/17 02:44:02;;;;;;;4.43;4.03;;;;;;;21.96;59.80;94922.66;5055868;28;20198;-67
2023/08/17 02:46:32;;;;;;;4.45;4.05;;;;;;;21.91;59.81;94925.19;5056625;28;20198;-67
2023/08/17 02:49:05;;;;;;;4.85;4.00;;;;;;;21.83;59.66;94922.53;5056222;28;20295;-67
2023/08/17 02:51:33;;;;;;;5.82;4.20;;;;;;;21.77;60.12;94927.03;5056023;28;20198;-67
2023/08/17 02:54:01;;;;;;;5.10;3.92;;;;;;;21.74;59.98;94921.47;5055430;28;20194;-67
2023/08/17 02:56:30;;;;;;;5.93;3.88;;;;;;;21.71;60.14;94928.75;5055908;28;20267;-67
2023/08/17 02:59:00;;;;;;;5.82;4.40;;;;;;;21.69;60.12;94927.59;5055503;28;20206;-67
2023/08/17 03:01:29;;;;;;;5.30;4.13;;;;;;;21.68;60.12;94926.00;5055912;28;20221;-67
2023/08/17 03:03:58;;;;;;;5.40;4.28;;;;;;;21.68;60.15;94924.00;5055619;28;20589;-65
2023/08/17 03:06:27;;;;;;;4.40;4.00;;;;;;;21.66;59.92;94932.06;5055845;28;20204;-65
2023/08/17 03:08:56;;;;;;;4.22;3.83;;;;;;;21.63;60.04;94932.91;5055992;28;20267;-65
2023/08/17 03:11:26;;;;;;;5.15;3.85;;;;;;;21.57;60.24;94929.03;5055610;28;20197;-65
2023/08/17 03:13:59;;;;;;;4.30;3.95;;;;;;;21.54;60.75;94925.03;5071917;28;20201;-65
2023/08/17 03:16:29;;;;;;;5.00;4.30;;;;;;;21.53;60.67;94937.50;5055373;28;20202;-65
2023/08/17 03:18:57;;;;;;;4.80;4.40;;;;;;;21.50;60.71;94938.34;5055300;28;20193;-70
2023/08/17 03:21:27;;;;;;;5.07;4.15;;;;;;;21.47;61.19;94935.59;5055080;28;20225;-65
2023/08/17 03:23:54;;;;;;;4.45;4.05;;;;;;;21.43;61.69;94943.28;5055441;28;20186;-65
2023/08/17 03:26:25;;;;;;;6.07;4.18;;;;;;;21.42;61.93;94942.47;5055240;28;20205;-65
2023/08/17 03:28:53;;;;;;;6.10;4.50;;;;;;;21.37;61.94;94935.34;5071608;28;20208;-65
2023/08/17 03:31:22;;;;;;;5.90;4.93;;;;;;;21.34;62.24;94935.41;5054995;28;20513;-65
2023/08/17 03:33:52;;;;;;;5.32;4.80;;;;;;;21.29;62.74;94933.84;5055269;28;20202;-65
2023/08/17 03:36:21;;;;;;;6.10;4.53;;;;;;;21.24;63.20;94937.16;5055151;28;20201;-65
2023/08/17 03:38:51;;;;;;;6.60;5.00;;;;;;;21.21;63.54;94945.63;5054327;28;20238;-65
2023/08/17 03:41:19;;;;;;;5.00;4.50;;;;;;;21.19;63.14;94953.66;5071189;28;20213;-65
2023/08/17 03:43:47;;;;;;;6.70;4.72;;;;;;;21.15;63.56;94948.09;5071492;28;20366;-65
2023/08/17 03:46:15;;;;;;;6.68;4.60;;;;;;;21.08;64.05;94951.00;5054835;28;20246;-65
2023/08/17 03:48:43;;;;;;;5.18;4.68;;;;;;;21.06;63.98;94947.81;5054698;28;20205;-67
2023/08/17 03:51:11;;;;;;;7.63;4.78;;;;;;;21.02;63.97;94950.69;5054589;28;20198;-66
2023/08/17 03:53:38;;;;;;;7.35;5.18;;;;;;;21.01;64.17;94951.13;5054521;28;20209;-65
2023/08/17 03:56:14;;;;;;;5.70;5.15;;;;;;;21.00;64.32;94955.16;5054468;28;20193;-65
2023/08/17 03:58:45;;;;;;;5.68;5.07;;;;;;;20.97;64.45;94956.78;5055873;28;20208;-65
2023/08/17 04:01:13;;;;;;;6.93;5.10;;;;;;;20.94;64.74;94957.63;5054544;28;20225;-65
2023/08/17 04:03:40;;;;;;;7.32;5.25;;;;;;;20.94;65.00;94963.22;5054233;28;20190;-65
2023/08/17 04:06:10;;;;;;;7.13;5.25;;;;;;;20.94;65.21;94966.03;5053870;28;20206;-65
2023/08/17 04:08:38;;;;;;;7.22;5.32;;;;;;;20.92;64.88;94960.06;5054962;28;20202;-65
2023/08/17 04:11:08;;;;;;;5.78;5.18;;;;;;;20.90;64.76;94970.91;5054768;28;20202;-65
2023/08/17 04:13:36;;;;;;;8.55;4.90;;;;;;;20.90;64.96;94971.69;5054562;28;20541;-65
2023/08/17 04:16:04;;;;;;;5.95;4.55;;;;;;;20.87;65.40;94971.75;5054093;28;20193;-65
2023/08/17 04:18:31;;;;;;;5.95;5.15;;;;;;;20.83;65.35;94974.59;5054017;28;20217;-65
2023/08/17 04:20:59;;;;;;;6.03;5.35;;;;;;;20.82;65.45;94969.41;5054073;28;20194;-66
2023/08/17 04:23:28;;;;;;;6.60;5.90;;;;;;;20.81;65.73;94973.44;5054026;28;20202;-65
2023/08/17 04:25:56;;;;;;;7.07;5.70;;;;;;;20.81;65.98;94971.44;5053888;28;20201;-65
2023/08/17 04:28:24;;;;;;;7.93;5.35;;;;;;;20.79;65.54;94968.25;5054592;28;20229;-65
2023/08/17 04:30:51;;;;;;;6.55;5.90;;;;;;;20.77;65.28;94969.88;5054006;28;20201;-65
2023/08/17 04:33:20;;;;;;;7.85;5.40;;;;;;;20.72;65.67;94964.75;5054312;28;20198;-65
2023/08/17 04:35:51;;;;;;;5.85;4.95;;;;;;;20.70;65.68;94964.38;5053814;28;20212;-65
2023/08/17 04:38:21;;;;;;;6.50;4.57;;;;;;;20.66;65.49;94965.22;5057343;28;20264;-65
2023/08/17 04:40:50;;;;;;;7.45;5.28;;;;;;;20.67;65.97;94966.03;5057317;28;20261;-65
2023/08/17 04:43:18;;;;;;;5.75;5.22;;;;;;;20.63;66.09;94968.88;5057488;28;20201;-66
2023/08/17 04:45:51;;;;;;;8.13;5.60;;;;;;;20.64;66.21;94967.66;5074278;28;20288;-65
2023/08/17 04:48:19;;;;;;;6.00;5.40;;;;;;;20.64;66.23;94970.44;5074218;28;20197;-65
2023/08/17 04:50:49;;;;;;;8.13;5.50;;;;;;;20.67;66.37;94974.44;5057203;28;20193;-65
2023/08/17 04:53:17;;;;;;;5.63;4.97;;;;;;;20.72;66.04;94965.53;5057486;28;20215;-65
2023/08/17 04:55:44;;;;;;;7.75;5.45;;;;;;;20.74;66.22;94970.75;5056996;28;20200;-65
2023/08/17 04:58:12;;;;;;;7.95;5.15;;;;;;;20.72;66.62;94965.53;5057251;28;20201;-66
2023/08/17 05:00:40;;;;;;;5.85;5.25;;;;;;;20.72;66.29;94964.75;5057445;28;20189;-65
2023/08/17 05:03:13;;;;;;;5.85;4.97;;;;;;;20.72;66.40;94964.75;5057138;28;20216;-66
2023/08/17 05:05:42;;;;;;;8.60;5.60;;;;;;;20.74;66.53;94956.72;5056859;28;20250;-66
2023/08/17 05:08:11;;;;;;;6.80;5.18;;;;;;;20.76;67.06;94963.47;5057901;28;20287;-66
2023/08/17 05:10:38;;;;;;;7.53;6.20;;;;;;;20.76;66.78;94965.50;5057369;28;20201;-66
2023/08/17 05:13:09;;;;;;;5.88;5.32;;;;;;;20.76;67.21;94962.69;5057224;28;20193;-66
2023/08/17 05:15:37;;;;;;;8.32;6.18;;;;;;;20.78;67.29;94952.66;5057419;28;20207;-66
2023/08/17 05:18:05;;;;;;;6.40;5.25;;;;;;;20.81;67.13;94965.81;5056844;28;20201;-66
2023/08/17 05:20:35;;;;;;;7.97;5.32;;;;;;;20.85;66.72;94963.75;5061055;28;20200;-66
2023/08/17 05:23:03;;;;;;;7.15;5.03;;;;;;;20.88;66.64;94968.53;5061484;28;20228;-66
2023/08/17 05:25:32;;;;;;;7.25;4.97;;;;;;;20.92;65.60;94963.66;5060937;28;20208;-66
2023/08/17 05:28:00;;;;;;;5.28;4.30;;;;;;;20.99;64.54;94970.38;5060846;28;20200;-66
2023/08/17 05:30:29;;;;;;;5.68;4.78;;;;;;;21.04;63.82;94962.28;5078580;28;20467;-66
2023/08/17 05:32:56;;;;;;;5.78;4.38;;;;;;;21.12;63.72;94962.97;5077309;28;20197;-66
2023/08/17 05:35:26;;;;;;;5.43;4.93;;;;;;;21.16;63.84;94961.69;5077179;28;20200;-66
2023/08/17 05:37:57;;;;;;;7.18;4.20;;;;;;;21.20;62.97;94961.63;5056624;28;20241;-66
2023/08/17 05:40:25;;;;;;;5.07;4.57;;;;;;;21.25;62.22;94966.78;5056983;28;20201;-66
2023/08/17 05:42:53;;;;;;;6.22;4.30;;;;;;;21.30;62.34;94979.53;5057689;28;20224;-66
2023/08/17 05:45:20;;;;;;;5.20;4.45;;;;;;;21.32;62.05;94969.47;5057427;28;20194;-66
2023/08/17 05:47:50;;;;;;;4.90;4.50;;;;;;;21.35;61.58;94973.44;5057103;28;20296;-66
2023/08/17 05:50:18;;;;;;;5.32;4.40;;;;;;;21.39;61.48;94969.38;5057126;28;20249;-66
2023/08/17 05:52:49;;;;;;;5.35;4.85;;;;;;;21.43;61.00;94977.75;5057193;28;20202;-66
2023/08/17 05:55:25;;;;;;;4.03;3.72;;;;;;;21.50;60.95;94976.84;5056745;28;20202;-66
2023/08/17 05:57:53;;;;;;;8.13;4.65;;;;;;;21.54;61.09;94969.16;5073636;28;20189;-66
2023/08/17 06:00:20;;;;;;;5.30;4.35;;;;;;;21.59;60.49;94972.25;5057150;28;20197;-66
2023/08/17 06:02:51;;;;;;;5.45;3.97;;;;;;;21.66;60.30;94976.97;5056688;28;20233;-66
2023/08/17 06:05:19;;;;;;;6.03;4.20;;;;;;;21.75;60.13;94967.97;5056988;28;20204;-66
2023/08/17 06:07:45;;;;;;;4.70;4.30;;;;;;;21.87;59.97;94970.19;5056729;28;20197;-66
2023/08/17 06:10:13;;;;;;;4.45;4.05;;;;;;;21.96;59.25;94970.41;5056742;28;20205;-66
2023/08/17 06:12:46;;;;;;;4.57;4.13;;;;;;;22.00;59.21;94971.13;5057082;28;20193;-66
2023/08/17 06:15:14;;;;;;;6.07;4.30;;;;;;;22.08;59.26;94971.81;5056932;28;20190;-66
2023/08/17 06:17:42;;;;;;;6.47;4.50;;;;;;;22.16;59.04;94966.88;5056584;28;20206;-66
2023/08/17 06:20:13;;;;;;;5.50;4.13;;;;;;;22.23;58.98;94963.94;5057117;28;20208;-66
2023/08/17 06:22:41;;;;;;;9.23;4.60;;;;;;;22.28;59.11;94967.00;5056987;28;20563;-66
2023/08/17 06:25:10;;;;;;;5.25;4.72;;;;;;;22.32;59.28;94972.56;5056255;28;20202;-66
2023/08/17 06:27:37;;;;;;;5.40;4.90;;;;;;;22.33;59.17;94968.50;5056293;28;20292;-65
2023/08/17 06:30:08;;;;;;;6.70;4.82;;;;;;;22.36;58.98;94967.66;5055693;28;20216;-65
2023/08/17 06:32:36;;;;;;;6.45;4.80;;;;;;;22.39;59.17;94972.41;5056284;28;20201;-66
2023/08/17 06:35:04;;;;;;;5.38;4.90;;;;;;;22.43;59.32;94967.50;5056116;28;20205;-66
2023/08/17 06:37:32;;;;;;;5.60;5.07;;;;;;;22.48;59.53;94971.84;5075971;28;20244;-66
2023/08/17 06:40:00;;;;;;;5.55;5.05;;;;;;;22.53;58.89;94974.94;5076140;28;20219;-65
2023/08/17 06:42:32;;;;;;;6.25;5.60;;;;;;;22.62;59.39;94970.75;5059068;28;20567;-65
2023/08/17 06:45:00;;;;;;;5.53;5.03;;;;;;;22.68;59.11;94972.63;5059734;28;20200;-65
2023/08/17 06:47:32;;;;;;;6.63;5.35;;;;;;;22.73;59.47;94974.13;5059231;28;20189;-65
2023/08/17 06:50:00;;;;;;;6.25;5.65;;;;;;;22.75;59.72;94975.28;5059021;28;20227;-65
2023/08/17 06:52:28;;;;;;;6.80;5.28;;;;;;;22.79;59.80;94984.44;5076157;28;20197;-65
2023/08/17 06:54:56;;;;;;;6.47;5.88;;;;;;;22.86;58.84;94977.88;5075966;28;20208;-66
2023/08/17 06:57:24;;;;;;;5.75;5.25;;;;;;;22.89;59.00;94977.00;5059110;28;20211;-66
2023/08/17 06:59:52;;;;;;;6.63;6.00;;;;;;;22.91;59.52;94974.53;5059146;28;20207;-66
2023/08/17 07:02:21;;;;;;;6.32;5.35;;;;;;;22.94;58.90;94970.88;5075406;28;20233;-65
2023/08/17 07:04:54;;;;;;;7.50;6.00;;;;;;;22.97;58.73;94974.84;5075615;28;20208;-66
2023/08/17 07:07:21;;;;;;;5.63;5.20;;;;;;;23.03;58.89;94973.91;5058789;28;20208;-66
2023/08/17 07:09:48;;;;;;;6.22;5.70;;;;;;;23.06;58.12;94975.84;5058665;28;20517;-66
2023/08/17 07:12:19;;;;;;;6.18;5.68;;;;;;;23.11;58.02;94974.53;5059026;28;20204;-66
2023/08/17 07:14:47;;;;;;;6.35;5.57;;;;;;;23.14;58.00;94973.66;5058820;28;20239;-65
2023/08/17 07:17:15;;;;;;;6.15;5.65;;;;;;;23.19;57.53;94970.31;5075393;28;20201;-65
2023/08/17 07:19:42;;;;;;;5.63;5.10;;;;;;;23.23;56.98;94967.41;5058569;28;20197;-65
2023/08/17 07:22:12;;;;;;;5.95;5.35;;;;;;;23.32;55.81;94969.63;5058707;28;20221;-66
2023/08/17 07:24:42;;;;;;;5.82;5.05;;;;;;;23.39;55.85;94961.03;5058833;28;20197;-65
2023/08/17 07:27:10;;;;;;;5.47;4.90;;;;;;;23.42;55.63;94960.94;5058416;28;20278;-65
2023/08/17 07:29:40;;;;;;;5.80;4.93;;;;;;;23.49;54.82;94962.78;5058315;28;20310;-66
2023/08/17 07:32:07;;;;;;;5.32;4.65;;;;;;;23.54;54.02;94956.63;5058354;28;20287;-66
2023/08/17 07:34:35;;;;;;;5.05;4.65;;;;;;;23.57;54.06;94958.56;5058924;28;20258;-65
2023/08/17 07:37:05;;;;;;;6.38;5.25;;;;;;;23.60;53.57;94957.66;5058332;28;20201;-65
2023/08/17 07:39:33;;;;;;;7.85;5.10;;;;;;;23.69;52.07;94955.06;5054603;28;20240;-66
2023/08/17 07:42:00;;;;;;;4.93;4.10;;;;;;;23.75;50.48;94963.78;5054122;28;20197;-65
2023/08/17 07:44:33;;;;;;;5.10;4.60;;;;;;;23.77;50.66;94959.28;5055225;28;20208;-65
2023/08/17 07:47:01;;;;;;;3.83;3.53;;;;;;;23.80;50.12;94956.81;5055358;28;20200;-65
2023/08/17 07:49:30;;;;;;;4.47;4.07;;;;;;;23.88;49.39;94959.00;5055886;28;20205;-65
2023/08/17 07:51:57;;;;;;;4.70;3.88;;;;;;;23.93;49.71;94957.66;5054709;28;20193;-65
2023/08/17 07:54:24;;;;;;;5.05;4.00;;;;;;;23.98;49.16;94955.13;5054966;28;20202;-65
2023/08/17 07:56:54;;;;;;;4.20;3.80;;;;;;;24.06;50.08;94957.72;5054402;28;20212;-65
2023/08/17 07:59:21;;;;;;;5.32;3.90;;;;;;;24.10;49.77;94959.22;5054385;28;20561;-65
2023/08/17 08:01:48;;;;;;;6.47;4.60;;;;;;;24.15;49.27;94950.25;5054757;28;20528;-66
2023/08/17 08:04:15;;;;;;;8.38;4.25;;;;;;;24.24;50.02;94949.59;5054302;28;20641;-65
2023/08/17 08:06:43;;;;;;;5.15;4.70;;;;;;;24.42;49.02;94941.44;5054473;28;20208;-65
2023/08/17 08:09:11;;;;;;;5.05;4.55;;;;;;;24.50;48.80;94944.84;5054386;28;20197;-66
2023/08/17 08:11:38;;;;;;;4.30;3.90;;;;;;;24.61;48.20;94944.53;5054562;28;20190;-65
2023/08/17 08:14:07;;;;;;;4.80;3.78;;;;;;;24.68;47.58;94945.13;5054555;28;20192;-65
2023/08/17 08:16:34;;;;;;;5.88;3.78;;;;;;;24.70;47.45;94947.50;5054637;28;20193;-66
2023/08/17 08:19:03;;;;;;;4.13;3.72;;;;;;;24.70;47.26;94939.84;5054611;28;20197;-66
2023/08/17 08:21:29;;;;;;;4.22;3.83;;;;;;;24.71;47.13;94946.25;5055352;28;20198;-66
2023/08/17 08:23:57;;;;;;;4.50;3.70;;;;;;;24.78;47.80;94943.22;5053943;28;20217;-66
2023/08/17 08:26:25;;;;;;;4.45;3.95;;;;;;;24.89;47.53;94937.28;5054934;28;20197;-66
2023/08/17 08:28:53;;;;;;;4.32;3.92;;;;;;;24.93;47.60;94940.78;5054575;28;20205;-66
2023/08/17 08:31:22;;;;;;;5.22;4.43;;;;;;;24.97;47.01;94947.09;5053995;28;20190;-65
2023/08/17 08:33:53;;;;;;;4.57;4.05;;;;;;;25.02;47.35;94934.44;5070689;28;20197;-66
2023/08/17 08:36:23;;;;;;;5.55;4.03;;;;;;;25.18;47.45;94940.03;5054475;28;20209;-66
2023/08/17 08:38:51;;;;;;;4.75;4.25;;;;;;;25.31;49.19;94935.19;5053905;28;20257;-66
2023/08/17 08:41:20;;;;;;;3.88;3.58;;;;;;;25.44;46.23;94940.81;5037138;28;20209;-66
2023/08/17 08:43:47;;;;;;;4.28;3.88;;;;;;;25.39;47.04;94938.56;5037254;28;20229;-66
2023/08/17 08:46:18;;;;;;;4.72;4.10;;;;;;;25.40;46.50;94938.09;5038268;28;20208;-66
2023/08/17 08:48:53;;;;;;;5.65;3.97;;;;;;;25.44;46.01;94940.81;5037730;28;20205;-66
2023/08/17 08:51:24;;;;;;;4.60;3.92;;;;;;;25.54;46.07;94936.06;5037588;28;20201;-66
2023/08/17 08:54:02;;;;;;;4.50;4.10;;;;;;;25.68;46.09;94929.94;5039896;28;20271;-66
2023/08/17 08:56:33;;;;;;;5.32;4.30;;;;;;;25.79;46.17;94930.38;5058728;28;20194;-66
2023/08/17 08:59:02;;;;;;;5.57;4.00;;;;;;;26.00;46.11;94926.03;5058099;28;20197;-66
2023/08/17 09:01:32;;;;;;;5.53;4.25;;;;;;;26.21;45.12;94916.00;5041262;28;20205;-66
2023/08/17 09:04:02;;;;;;;10.25;4.10;;;;;;;26.29;45.39;94919.34;5058980;28;20221;-66
2023/08/17 09:06:33;;;;;;;4.80;4.30;;;;;;;26.39;44.66;94916.13;5058968;28;20221;-66
2023/08/17 09:09:03;;;;;;;4.47;4.00;;;;;;;26.41;45.15;94915.69;5040969;28;20692;-66
2023/08/17 09:11:31;;;;;;;4.25;3.88;;;;;;;26.47;44.68;94910.25;5041153;28;20198;-66
2023/08/17 09:13:59;;;;;;;4.85;4.35;;;;;;;26.55;44.25;94909.53;5058755;28;20320;-66
2023/08/17 09:16:31;;;;;;;4.07;3.70;;;;;;;26.59;44.72;94900.91;5057440;28;20194;-66
2023/08/17 09:18:59;;;;;;;7.72;4.28;;;;;;;26.67;45.56;94902.22;5041294;28;20246;-66
2023/08/17 09:21:27;;;;;;;4.85;4.20;;;;;;;26.71;43.91;94900.03;5057325;28;20206;-65
2023/08/17 09:23:56;;;;;;;5.10;4.05;;;;;;;26.79;43.78;94900.53;5040565;28;20222;-65
2023/08/17 09:26:26;;;;;;;4.85;4.10;;;;;;;26.82;44.41;94891.13;5041130;28;20262;-65
2023/08/17 09:28:56;;;;;;;4.30;3.90;;;;;;;26.87;44.64;94890.53;5058410;28;20201;-65
2023/08/17 09:31:24;;;;;;;4.75;3.65;;;;;;;26.89;43.53;94894.47;5058294;28;20232;-66
2023/08/17 09:33:52;;;;;;;5.22;3.85;;;;;;;26.87;43.30;94894.16;5040446;28;20222;-66
2023/08/17 09:36:22;;;;;;;4.60;4.10;;;;;;;26.99;42.66;94897.38;5041191;28;20201;-66
2023/08/17 09:38:57;;;;;;;4.25;3.85;;;;;;;27.01;43.01;94880.69;5050837;28;20233;-66
2023/08/17 09:41:27;;;;;;;4.15;3.85;;;;;;;26.99;43.00;94883.22;5073898;28;20196;-65
2023/08/17 09:43:55;;;;;;;4.00;3.55;;;;;;;27.02;42.55;94879.47;5056810;28;20228;-65
2023/08/17 09:46:21;;;;;;;3.50;3.20;;;;;;;27.09;42.08;94870.69;5057734;28;20541;-65
2023/08/17 09:48:49;;;;;;;4.35;3.80;;;;;;;27.20;42.23;94875.91;5057239;28;20621;-65
2023/08/17 09:51:19;;;;;;;6.07;3.20;;;;;;;27.50;41.71;94875.06;5057147;28;20198;-65
2023/08/17 09:53:54;;;;;;;3.80;3.50;;;;;;;27.73;40.58;94870.84;5057064;28;20194;-65
2023/08/17 09:56:24;;;;;;;3.78;3.45;;;;;;;27.81;40.24;94869.31;5057442;28;20274;-65
2023/08/17 09:58:53;;;;;;;3.85;3.47;;;;;;;27.85;40.14;94857.84;5057114;28;20203;-66
2023/08/17 10:01:23;;;;;;;3.90;3.08;;;;;;;27.76;40.26;94858.63;5056970;28;20614;-65
2023/08/17 10:03:50;;;;;;;3.88;3.58;;;;;;;27.71;39.92;94855.59;5056240;28;20222;-65
2023/08/17 10:06:26;;;;;;;4.25;3.42;;;;;;;27.70;40.56;94848.34;5056019;28;20201;-65
2023/08/17 10:08:58;;;;;;;3.78;3.35;;;;;;;27.62;39.91;94853.53;5056615;28;20213;-65
2023/08/17 10:11:27;;;;;;;4.15;3.85;;;;;;;27.60;40.07;94837.03;5056817;28;20567;-65
2023/08/17 10:14:02;;;;;;;3.47;3.17;;;;;;;27.68;39.95;94842.38;5073334;28;20205;-65
2023/08/17 10:16:37;;;;;;;4.47;3.30;;;;;;;27.82;40.18;94841.78;5056753;28;20208;-65
2023/08/17 10:19:07;;;;;;;3.95;3.53;;;;;;;28.05;39.73;94837.53;5057009;28;20533;-65
2023/08/17 10:21:40;;;;;;;3.50;3.20;;;;;;;28.28;37.29;94847.44;5056745;28;20197;-65
2023/08/17 10:24:10;;;;;;;3.13;2.50;;;;;;;28.51;37.42;94852.47;5056156;28;20210;-65
2023/08/17 10:26:39;;;;;;;4.13;3.00;;;;;;;28.72;37.48;94850.72;5056677;28;20630;-65
2023/08/17 10:29:07;;;;;;;3.67;2.80;;;;;;;28.94;36.18;94849.66;5056343;28;20232;-65
2023/08/17 10:31:36;;;;;;;3.70;2.88;;;;;;;29.04;36.78;94845.56;5056393;28;20540;-65
2023/08/17 10:34:04;;;;;;;3.80;2.60;;;;;;;29.12;37.04;94840.31;5056251;28;20198;-65
2023/08/17 10:36:32;;;;;;;5.57;3.10;;;;;;;28.94;36.16;94839.13;5056458;28;20198;-65
2023/08/17 10:39:29;;;;;;;3.83;3.40;;;;;;;28.77;36.13;94841.53;5072532;28;20241;-65
2023/08/17 10:41:58;;;;;;;3.83;3.45;;;;;;;28.70;36.65;94824.84;5055749;28;20212;-65
2023/08/17 10:44:41;;;;;;;3.63;3.03;;;;;;;28.72;36.31;94830.03;5056147;28;20228;-65
2023/08/17 10:47:25;;;;;;;3.20;2.90;;;;;;;28.94;36.70;94826.94;5056176;28;20248;-65
2023/08/17 10:50:00;;;;;;;3.35;3.05;;;;;;;28.74;36.14;94833.97;5055707;28;20540;-65
2023/08/17 10:52:35;;;;;;;3.42;3.13;;;;;;;28.69;36.08;94831.00;5056208;28;20201;-65
2023/08/17 10:55:07;;;;;;;3.40;3.10;;;;;;;28.70;36.83;94826.91;5072790;28;20189;-65
2023/08/17 10:57:38;;;;;;;3.33;3.05;;;;;;;28.70;36.59;94822.00;5055990;28;20206;-65
2023/08/17 11:00:15;;;;;;;3.30;3.00;;;;;;;28.77;37.00;94801.81;5055859;28;20202;-65
2023/08/17 11:03:00;;;;;;;3.75;3.10;;;;;;;28.81;35.72;94826.41;5055845;28;20207;-65
2023/08/17 11:05:38;;;;;;;2.92;2.72;;;;;;;28.82;35.64;94820.22;5055729;28;20202;-65
2023/08/17 11:08:11;;;;;;;3.47;2.83;;;;;;;28.88;35.86;94820.38;5055705;28;20193;-65
2023/08/17 11:10:42;;;;;;;3.20;3.00;;;;;;;28.87;36.02;94810.28;5056156;28;20201;-65
2023/08/17 11:13:10;;;;;;;3.88;3.22;;;;;;;29.02;36.42;94805.53;5055872;28;20198;-65
2023/08/17 11:15:42;;;;;;;3.85;3.55;;;;;;;28.99;36.06;94806.47;5055002;28;20217;-65
2023/08/17 11:18:10;;;;;;;3.20;3.00;;;;;;;29.17;36.83;94805.59;5054896;28;20216;-65
2023/08/17 11:20:40;;;;;;;4.93;3.13;;;;;;;29.20;35.73;94808.28;5056109;28;20251;-65
2023/08/17 11:23:09;;;;;;;4.78;3.00;;;;;;;29.25;36.40;94795.47;5055427;28;20205;-65
2023/08/17 11:25:38;;;;;;;4.50;3.22;;;;;;;29.40;36.35;94795.53;5055203;28;20208;-65
2023/08/17 11:28:09;;;;;;;6.03;4.28;;;;;;;29.50;35.98;94794.97;5055111;28;20205;-65
2023/08/17 11:30:38;;;;;;;3.88;3.15;;;;;;;29.52;36.11;94791.63;5055181;28;20194;-65
2023/08/17 11:33:08;;;;;;;4.38;3.20;;;;;;;29.47;34.82;94793.09;5055767;28;20247;-65
2023/08/17 11:35:36;;;;;;;3.53;3.22;;;;;;;29.37;35.78;94788.75;5056250;28;20185;-65
2023/08/17 11:38:05;;;;;;;3.97;3.50;;;;;;;29.34;36.02;94784.06;5054765;28;20241;-65
2023/08/17 11:40:34;;;;;;;6.85;4.10;;;;;;;29.24;37.16;94774.00;5054892;28;20268;-65
2023/08/17 11:43:04;;;;;;;4.57;3.70;;;;;;;29.24;37.09;94786.16;5071788;28;20259;-65
2023/08/17 11:45:34;;;;;;;4.50;4.07;;;;;;;29.26;37.30;94792.13;5054964;28;20566;-65